createdAt,value
2018-06-23T00:02:30.350Z,2.67
2018-06-23T00:05:10.851Z,2.70
2018-06-23T00:07:50.557Z,2.93
2018-06-23T00:10:30.648Z,2.90
2018-06-23T00:13:10.377Z,2.27
2018-06-23T00:15:50.075Z,2.90
2018-06-23T00:18:27.458Z,3.30
2018-06-23T00:21:06.256Z,3.03
2018-06-23T00:23:43.760Z,2.90
2018-06-23T00:26:26.219Z,2.53
2018-06-23T00:29:04.293Z,2.90
2018-06-23T00:31:41.389Z,2.97
2018-06-23T00:34:21.350Z,3.43
2018-06-23T00:36:58.171Z,2.87
2018-06-23T00:39:35.933Z,3.00
2018-06-23T00:42:14.255Z,3.37
2018-06-23T00:44:52.300Z,3.40
2018-06-23T00:47:31.219Z,3.30
2018-06-23T00:50:08.820Z,3.40
2018-06-23T00:52:48.899Z,3.30
2018-06-23T00:55:26.864Z,3.60
2018-06-23T00:58:04.661Z,3.30
2018-06-23T01:00:41.298Z,3.60
2018-06-23T01:03:21.529Z,3.80
2018-06-23T01:05:59.181Z,3.40
2018-06-23T01:08:40.300Z,3.70
2018-06-23T01:11:20.273Z,3.80
2018-06-23T01:13:52.525Z,3.53
2018-06-23T01:16:29.528Z,3.70
2018-06-23T01:19:09.380Z,3.37
2018-06-23T01:21:49.552Z,2.80
2018-06-23T01:24:29.803Z,4.13
2018-06-23T01:27:06.691Z,3.40
2018-06-23T01:29:47.040Z,3.47
2018-06-23T01:32:27.091Z,3.47
2018-06-23T01:35:05.214Z,3.27
2018-06-23T01:37:43.547Z,3.10
2018-06-23T01:40:19.023Z,3.30
2018-06-23T01:42:59.139Z,3.50
2018-06-23T01:45:38.886Z,3.40
2018-06-23T01:48:17.389Z,3.47
2018-06-23T01:50:57.210Z,3.40
2018-06-23T01:53:34.789Z,3.10
2018-06-23T01:56:14.871Z,3.10
2018-06-23T01:58:54.838Z,3.33
2018-06-23T02:01:34.748Z,3.40
2018-06-23T02:04:10.540Z,3.20
2018-06-23T02:06:50.781Z,2.83
2018-06-23T02:09:30.775Z,3.23
2018-06-23T02:12:11.059Z,3.30
2018-06-23T02:14:56.071Z,2.97
2018-06-23T02:17:41.130Z,3.60
2018-06-23T02:20:26.318Z,3.90
2018-06-23T02:24:13.412Z,3.00
2018-06-23T02:26:58.220Z,3.03
2018-06-23T02:29:43.181Z,3.30
2018-06-23T02:32:27.951Z,3.57
2018-06-23T02:35:09.241Z,3.07
2018-06-23T02:37:49.288Z,2.97
2018-06-23T02:40:29.137Z,3.30
2018-06-23T02:43:08.892Z,3.20
2018-06-23T02:45:49.142Z,3.10
2018-06-23T02:48:29.193Z,3.07
2018-06-23T02:51:09.169Z,3.87
2018-06-23T02:53:49.443Z,3.60
2018-06-23T02:56:29.268Z,3.73
2018-06-23T02:59:04.982Z,3.50
2018-06-23T03:01:45.086Z,3.83
2018-06-23T03:04:19.146Z,3.53
2018-06-23T03:06:54.758Z,3.90
2018-06-23T03:09:27.568Z,4.30
2018-06-23T03:12:05.887Z,4.80
2018-06-23T03:14:45.058Z,4.43
2018-06-23T03:17:22.116Z,5.00
2018-06-23T03:19:59.317Z,4.60
2018-06-23T03:22:39.622Z,5.47
2018-06-23T03:25:18.447Z,8.37
2018-06-23T03:27:55.892Z,7.50
2018-06-23T03:30:36.025Z,5.13
2018-06-23T03:33:13.271Z,5.10
2018-06-23T03:35:48.666Z,4.20
2018-06-23T03:38:25.924Z,3.50
2018-06-23T03:41:02.071Z,3.60
2018-06-23T03:43:34.104Z,3.20
2018-06-23T03:46:10.192Z,3.30
2018-06-23T03:48:48.551Z,3.10
2018-06-23T03:51:26.816Z,3.17
2018-06-23T03:54:03.175Z,3.13
2018-06-23T03:56:40.587Z,3.10
2018-06-23T03:59:12.237Z,3.10
2018-06-23T04:01:42.938Z,3.70
2018-06-23T04:04:22.942Z,3.20
2018-06-23T04:07:03.124Z,3.53
2018-06-23T04:09:43.353Z,3.27
2018-06-23T04:12:23.404Z,3.10
2018-06-23T04:15:03.266Z,3.70
2018-06-23T04:17:43.165Z,3.40
2018-06-23T04:20:23.641Z,3.47
2018-06-23T04:23:04.057Z,3.43
2018-06-23T04:25:44.262Z,3.30
2018-06-23T04:28:21.581Z,3.50
2018-06-23T04:31:00.135Z,3.47
2018-06-23T04:33:39.896Z,3.23
2018-06-23T04:36:19.492Z,3.10
2018-06-23T04:38:52.332Z,3.30
2018-06-23T04:41:27.502Z,2.80
2018-06-23T04:44:04.077Z,3.40
2018-06-23T04:46:36.037Z,3.00
2018-06-23T04:49:12.872Z,3.17
2018-06-23T04:51:49.683Z,3.00
2018-06-23T04:54:26.909Z,3.77
2018-06-23T04:57:07.135Z,3.10
2018-06-23T04:59:44.020Z,3.60
2018-06-23T05:02:20.995Z,3.43
2018-06-23T05:04:57.954Z,3.30
2018-06-23T05:07:35.420Z,5.07
2018-06-23T05:10:15.647Z,5.50
2018-06-23T05:12:51.886Z,3.50
2018-06-23T05:15:29.035Z,3.30
2018-06-23T05:18:08.523Z,3.30
2018-06-23T05:20:48.280Z,3.23
2018-06-23T05:23:23.887Z,3.10
2018-06-23T05:25:55.940Z,3.20
2018-06-23T05:28:34.239Z,3.23
2018-06-23T05:31:14.495Z,3.20
2018-06-23T05:33:54.795Z,7.23
2018-06-23T05:36:30.714Z,3.40
2018-06-23T05:39:09.385Z,3.00
2018-06-23T05:41:45.666Z,3.30
2018-06-23T05:44:26.369Z,3.80
2018-06-23T05:47:06.539Z,3.37
2018-06-23T05:49:42.928Z,3.00
2018-06-23T05:52:23.337Z,3.40
2018-06-23T05:55:03.516Z,2.87
2018-06-23T05:57:44.057Z,3.40
2018-06-23T06:00:15.857Z,3.40
2018-06-23T06:02:47.547Z,3.23
2018-06-23T06:05:27.913Z,3.50
2018-06-23T06:08:07.811Z,3.47
2018-06-23T06:10:47.805Z,3.37
2018-06-23T06:13:26.184Z,3.47
2018-06-23T06:16:03.978Z,3.63
2018-06-23T06:18:44.033Z,3.37
2018-06-23T06:21:24.500Z,3.30
2018-06-23T06:24:05.041Z,3.47
2018-06-23T06:26:40.644Z,2.87
2018-06-23T06:29:20.631Z,3.40
2018-06-23T06:31:52.511Z,3.63
2018-06-23T06:34:25.971Z,3.57
2018-06-23T06:37:01.315Z,2.93
2018-06-23T06:39:37.124Z,3.13
2018-06-23T06:42:17.491Z,2.90
2018-06-23T06:44:55.697Z,3.30
2018-06-23T06:47:35.399Z,3.10
2018-06-23T06:50:12.715Z,3.70
2018-06-23T06:52:52.495Z,3.57
2018-06-23T06:55:29.982Z,3.10
2018-06-23T06:58:09.874Z,3.10
2018-06-23T07:00:50.006Z,3.03
2018-06-23T07:03:29.946Z,2.60
2018-06-23T07:06:07.937Z,2.97
2018-06-23T07:08:49.541Z,2.40
2018-06-23T07:11:29.438Z,5.03
2018-06-23T07:14:08.360Z,6.07
2018-06-23T07:16:48.074Z,2.40
2018-06-23T07:19:24.022Z,2.90
2018-06-23T07:22:04.223Z,3.20
2018-06-23T07:24:42.781Z,2.83
2018-06-23T07:27:14.702Z,2.77
2018-06-23T07:29:45.980Z,2.70
2018-06-23T07:32:17.101Z,3.03
2018-06-23T07:34:58.384Z,2.60
2018-06-23T07:37:38.291Z,2.77
2018-06-23T07:40:17.927Z,3.23
2018-06-23T07:42:57.710Z,3.87
2018-06-23T07:45:38.156Z,5.07
2018-06-23T07:48:18.638Z,6.40
2018-06-23T07:50:50.796Z,2.27
2018-06-23T07:53:25.826Z,2.80
2018-06-23T07:56:06.528Z,2.80
2018-06-23T07:58:46.624Z,2.50
2018-06-23T08:01:18.917Z,2.53
2018-06-23T08:03:50.944Z,2.67
2018-06-23T08:06:32.215Z,2.93
2018-06-23T08:09:12.328Z,2.10
2018-06-23T08:11:52.864Z,2.70
2018-06-23T08:14:31.730Z,2.40
2018-06-23T08:17:11.809Z,2.80
2018-06-23T08:19:45.040Z,2.47
2018-06-23T08:22:26.690Z,3.33
2018-06-23T08:25:06.817Z,3.00
2018-06-23T08:27:44.471Z,2.27
2018-06-23T08:30:41.146Z,2.47
2018-06-23T08:33:26.130Z,2.80
2018-06-23T08:36:02.839Z,3.00
2018-06-23T08:38:43.533Z,2.67
2018-06-23T08:41:23.473Z,2.30
2018-06-23T08:44:03.288Z,2.93
2018-06-23T08:46:42.735Z,2.33
2018-06-23T08:49:21.545Z,2.40
2018-06-23T08:52:01.538Z,2.47
2018-06-23T08:54:41.384Z,2.57
2018-06-23T08:57:21.419Z,2.23
2018-06-23T09:00:01.707Z,2.20
2018-06-23T09:02:40.978Z,2.17
2018-06-23T09:05:19.494Z,1.90
2018-06-23T09:07:59.799Z,1.60
2018-06-23T09:10:40.494Z,2.13
2018-06-23T09:13:23.727Z,1.97
2018-06-23T09:16:04.508Z,2.03
2018-06-23T09:18:46.596Z,2.10
2018-06-23T09:21:22.214Z,2.13
2018-06-23T09:24:02.225Z,3.33
2018-06-23T09:26:42.288Z,4.20
2018-06-23T09:29:22.977Z,1.80
2018-06-23T09:32:02.780Z,1.80
2018-06-23T09:34:39.938Z,1.70
2018-06-23T09:37:17.021Z,1.43
2018-06-23T09:39:58.405Z,1.70
2018-06-23T09:42:38.332Z,1.90
2018-06-23T09:45:19.230Z,1.93
2018-06-23T09:47:58.997Z,2.10
2018-06-23T09:50:39.066Z,1.97
2018-06-23T09:53:17.334Z,2.10
2018-06-23T09:55:57.848Z,1.87
2018-06-23T09:58:38.851Z,1.90
2018-06-23T10:01:20.000Z,1.83
2018-06-23T10:03:56.352Z,1.40
2018-06-23T10:06:37.289Z,1.80
2018-06-23T10:09:17.896Z,1.90
2018-06-23T10:11:57.976Z,1.87
2018-06-23T10:14:38.250Z,2.50
2018-06-23T10:17:18.590Z,2.27
2018-06-23T10:19:58.819Z,1.90
2018-06-23T10:22:38.827Z,2.10
2018-06-23T10:25:12.311Z,1.80
2018-06-23T10:27:53.200Z,1.87
2018-06-23T10:30:25.563Z,1.63
2018-06-23T10:33:05.777Z,1.70
2018-06-23T10:35:45.866Z,1.93
2018-06-23T10:38:27.588Z,2.20
2018-06-23T10:41:07.708Z,2.00
2018-06-23T10:43:47.842Z,2.50
2018-06-23T10:46:28.064Z,2.23
2018-06-23T10:49:08.412Z,1.70
2018-06-23T10:51:48.876Z,1.50
2018-06-23T10:54:28.532Z,1.50
2018-06-23T10:57:08.824Z,1.77
2018-06-23T10:59:48.720Z,1.70
2018-06-23T11:02:28.787Z,2.00
2018-06-23T11:05:09.085Z,1.90
2018-06-23T11:07:49.544Z,1.63
2018-06-23T11:10:29.391Z,2.10
2018-06-23T11:13:09.255Z,2.23
2018-06-23T11:15:47.274Z,2.30
2018-06-23T11:18:24.124Z,2.20
2018-06-23T11:21:04.331Z,2.57
2018-06-23T11:23:38.178Z,2.40
2018-06-23T11:26:13.578Z,2.20
2018-06-23T11:29:01.617Z,2.30
2018-06-23T11:31:42.152Z,2.40
2018-06-23T11:34:21.160Z,2.23
2018-06-23T11:37:01.292Z,2.20
2018-06-23T11:39:39.555Z,2.60
2018-06-23T11:42:15.733Z,2.83
2018-06-23T11:44:52.437Z,2.50
2018-06-23T11:47:32.588Z,2.30
2018-06-23T11:50:13.003Z,2.17
2018-06-23T11:52:53.027Z,2.00
2018-06-23T11:55:34.479Z,2.40
2018-06-23T11:58:14.270Z,2.17
2018-06-23T12:00:46.839Z,2.30
2018-06-23T12:03:18.705Z,3.47
2018-06-23T12:06:00.022Z,2.20
2018-06-23T12:08:40.068Z,2.30
2018-06-23T12:11:20.407Z,2.57
2018-06-23T12:14:00.519Z,2.60
2018-06-23T12:16:40.907Z,2.50
2018-06-23T12:19:21.241Z,2.37
2018-06-23T12:22:01.428Z,2.83
2018-06-23T12:24:42.329Z,2.87
2018-06-23T12:27:22.755Z,2.73
2018-06-23T12:30:02.773Z,2.70
2018-06-23T12:32:43.285Z,3.20
2018-06-23T12:35:24.330Z,2.77
2018-06-23T12:38:04.473Z,2.50
2018-06-23T12:40:42.169Z,2.67
2018-06-23T12:43:22.379Z,3.00
2018-06-23T12:46:03.186Z,2.50
2018-06-23T12:48:40.788Z,2.70
2018-06-23T12:51:18.599Z,3.03
2018-06-23T12:53:59.216Z,2.90
2018-06-23T12:56:35.437Z,2.43
2018-06-23T12:59:10.931Z,3.00
2018-06-23T13:01:48.403Z,2.67
2018-06-23T13:04:24.503Z,2.90
2018-06-23T13:07:00.241Z,3.10
2018-06-23T13:09:37.151Z,2.80
2018-06-23T13:12:17.898Z,2.80
2018-06-23T13:14:57.520Z,2.80
2018-06-23T13:17:33.478Z,2.47
2018-06-23T13:20:10.424Z,3.20
2018-06-23T13:22:51.511Z,2.60
2018-06-23T13:25:31.349Z,2.77
2018-06-23T13:28:11.347Z,2.87
2018-06-23T13:30:52.069Z,2.40
2018-06-23T13:33:32.442Z,2.60
2018-06-23T13:36:12.642Z,2.30
2018-06-23T13:38:52.911Z,2.60
2018-06-23T13:41:32.530Z,2.67
2018-06-23T13:44:12.694Z,2.70
2018-06-23T13:46:53.052Z,2.57
2018-06-23T13:49:33.308Z,2.60
2018-06-23T13:52:13.968Z,2.40
2018-06-23T13:54:54.156Z,2.77
2018-06-23T13:57:34.422Z,2.53
2018-06-23T14:00:07.053Z,2.53
2018-06-23T14:02:43.046Z,3.40
2018-06-23T14:05:23.279Z,2.13
2018-06-23T14:08:03.749Z,2.77
2018-06-23T14:10:40.951Z,2.57
2018-06-23T14:13:17.262Z,2.27
2018-06-23T14:15:50.101Z,2.77
2018-06-23T14:18:21.491Z,2.70
2018-06-23T14:21:02.643Z,2.40
2018-06-23T14:23:43.046Z,2.80
2018-06-23T14:26:23.406Z,2.43
2018-06-23T14:29:03.491Z,2.33
2018-06-23T14:31:43.941Z,3.03
2018-06-23T14:34:19.632Z,2.57
2018-06-23T14:36:59.687Z,2.40
2018-06-23T14:39:40.130Z,2.80
2018-06-23T14:42:20.419Z,2.73
2018-06-23T14:44:57.459Z,2.50
2018-06-23T14:47:33.160Z,2.47
2018-06-23T14:50:09.796Z,3.00
2018-06-23T14:52:50.097Z,2.90
2018-06-23T14:55:30.374Z,2.40
2018-06-23T14:58:12.545Z,2.60
2018-06-23T15:00:53.189Z,2.20
2018-06-23T15:03:25.540Z,2.63
2018-06-23T15:06:02.239Z,2.37
2018-06-23T15:08:44.084Z,2.90
2018-06-23T15:11:26.051Z,2.60
2018-06-23T15:14:06.619Z,2.47
2018-06-23T15:16:44.962Z,2.50
2018-06-23T15:19:24.993Z,2.40
2018-06-23T15:22:05.515Z,2.70
2018-06-23T15:24:46.231Z,2.93
2018-06-23T15:27:24.764Z,2.77
2018-06-23T15:29:56.724Z,2.67
2018-06-23T15:32:28.582Z,2.33
2018-06-23T15:35:09.336Z,2.70
2018-06-23T15:37:49.563Z,2.57
2018-06-23T15:40:34.658Z,2.90
2018-06-23T15:43:15.125Z,2.73
2018-06-23T15:45:55.776Z,2.50
2018-06-23T15:48:34.649Z,2.80
2018-06-23T15:51:12.343Z,2.53
2018-06-23T15:53:46.122Z,2.83
2018-06-23T15:56:25.018Z,2.63
2018-06-23T15:58:58.528Z,2.67
2018-06-23T16:01:37.021Z,2.60
2018-06-23T16:04:13.672Z,2.37
2018-06-23T16:06:53.845Z,2.60
2018-06-23T16:09:34.053Z,2.60
2018-06-23T16:12:14.977Z,2.70
2018-06-23T16:14:56.419Z,2.50
2018-06-23T16:17:37.193Z,2.60
2018-06-23T16:20:17.676Z,2.60
2018-06-23T16:22:58.138Z,2.47
2018-06-23T16:25:38.216Z,2.40
2018-06-23T16:28:18.347Z,2.30
2018-06-23T16:30:50.127Z,2.17
2018-06-23T16:33:23.476Z,2.30
2018-06-23T16:36:03.727Z,2.60
2018-06-23T16:38:44.334Z,2.30
2018-06-23T16:41:24.452Z,2.50
2018-06-23T16:44:04.839Z,2.20
2018-06-23T16:46:44.536Z,2.37
2018-06-23T16:49:24.188Z,2.70
2018-06-23T16:52:04.387Z,2.73
2018-06-23T16:54:45.533Z,2.77
2018-06-23T16:57:26.219Z,2.80
2018-06-23T17:00:06.718Z,2.50
2018-06-23T17:02:47.465Z,2.30
2018-06-23T17:05:26.019Z,2.33
2018-06-23T17:08:03.949Z,2.63
2018-06-23T17:10:41.379Z,2.73
2018-06-23T17:13:17.128Z,2.80
2018-06-23T17:15:53.837Z,2.63
2018-06-23T17:18:30.633Z,2.83
2018-06-23T17:21:10.589Z,2.60
2018-06-23T17:23:51.588Z,2.73
2018-06-23T17:26:31.850Z,2.83
2018-06-23T17:29:12.876Z,3.03
2018-06-23T17:31:53.604Z,2.83
2018-06-23T17:34:34.362Z,2.90
2018-06-23T17:37:08.487Z,2.80
2018-06-23T17:39:46.434Z,2.97
2018-06-23T17:42:26.455Z,3.10
2018-06-23T17:45:06.590Z,3.23
2018-06-23T17:47:46.093Z,3.40
2018-06-23T17:50:26.857Z,2.90
2018-06-23T17:53:04.161Z,3.03
2018-06-23T17:55:38.039Z,3.10
2018-06-23T17:58:15.044Z,3.20
2018-06-23T18:00:48.762Z,2.87
2018-06-23T18:03:22.862Z,3.07
2018-06-23T18:06:02.812Z,3.07
2018-06-23T18:08:43.028Z,2.90
2018-06-23T18:11:30.376Z,3.07
2018-06-23T18:14:16.871Z,3.30
2018-06-23T18:16:57.204Z,3.37
2018-06-23T18:19:37.328Z,3.00
2018-06-23T18:22:27.964Z,3.30
2018-06-23T18:25:12.125Z,3.37
2018-06-23T18:27:57.617Z,3.00
2018-06-23T18:30:36.749Z,3.40
2018-06-23T18:33:17.241Z,2.90
2018-06-23T18:35:51.500Z,2.77
2018-06-23T18:38:37.240Z,2.87
2018-06-23T18:41:29.133Z,3.00
2018-06-23T18:44:10.127Z,2.90
2018-06-23T18:46:54.925Z,3.10
2018-06-23T18:49:34.843Z,2.90
2018-06-23T18:52:14.804Z,2.93
2018-06-23T18:54:55.261Z,2.93
2018-06-23T18:57:34.866Z,3.13
2018-06-23T19:00:15.648Z,3.03
2018-06-23T19:02:54.710Z,3.23
2018-06-23T19:05:32.980Z,3.67
2018-06-23T19:08:11.864Z,3.43
2018-06-23T19:11:08.500Z,3.10
2018-06-23T19:13:53.336Z,3.43
2018-06-23T19:16:34.241Z,3.80
2018-06-23T19:19:17.915Z,3.43
2018-06-23T19:21:58.905Z,4.07
2018-06-23T19:24:39.674Z,3.63
2018-06-23T19:27:15.490Z,3.60
2018-06-23T19:29:57.741Z,3.53
2018-06-23T19:32:39.193Z,3.70
2018-06-23T19:35:19.448Z,3.70
2018-06-23T19:38:07.572Z,3.70
2018-06-23T19:40:48.598Z,3.87
2018-06-23T19:43:30.274Z,3.77
2018-06-23T19:46:10.731Z,4.10
2018-06-23T19:48:51.621Z,3.90
2018-06-23T19:51:33.552Z,3.90
2018-06-23T19:54:13.573Z,4.13
2018-06-23T19:56:53.669Z,4.07
2018-06-23T19:59:34.995Z,3.90
2018-06-23T20:02:15.239Z,3.73
2018-06-23T20:04:50.680Z,3.30
2018-06-23T20:07:31.293Z,3.60
2018-06-23T20:10:09.924Z,4.27
2018-06-23T20:12:48.574Z,3.60
2018-06-23T20:15:28.809Z,3.57
2018-06-23T20:18:09.127Z,3.80
2018-06-23T20:20:44.455Z,4.10
2018-06-23T20:23:23.615Z,3.70
2018-06-23T20:26:01.476Z,3.63
2018-06-23T20:28:41.956Z,3.80
2018-06-23T20:31:23.600Z,4.20
2018-06-23T20:34:04.227Z,3.90
2018-06-23T20:36:42.690Z,3.30
2018-06-23T20:39:19.769Z,4.00
2018-06-23T20:42:01.850Z,4.00
2018-06-23T20:44:41.790Z,3.40
2018-06-23T20:47:17.433Z,3.70
2018-06-23T20:49:54.880Z,4.03
2018-06-23T20:52:33.543Z,3.73
2018-06-23T20:55:11.920Z,3.50
2018-06-23T20:57:52.335Z,3.77
2018-06-23T21:00:32.285Z,3.90
2018-06-23T21:03:12.281Z,3.60
2018-06-23T21:05:49.846Z,4.67
2018-06-23T21:08:25.958Z,3.30
2018-06-23T21:11:03.685Z,4.10
2018-06-23T21:13:43.839Z,3.80
2018-06-23T21:16:15.147Z,3.87
2018-06-23T21:18:46.896Z,3.93
2018-06-23T21:21:27.248Z,3.50
2018-06-23T21:24:07.385Z,3.47
2018-06-23T21:26:47.564Z,3.60
2018-06-23T21:29:28.017Z,3.57
2018-06-23T21:32:08.434Z,3.80
2018-06-23T21:34:48.743Z,3.60
2018-06-23T21:37:29.213Z,3.87
2018-06-23T21:40:09.590Z,4.00
2018-06-23T21:42:47.381Z,4.13
2018-06-23T21:45:24.069Z,3.87
2018-06-23T21:47:58.169Z,4.17
2018-06-23T21:50:34.400Z,4.10
2018-06-23T21:53:10.561Z,3.73
2018-06-23T21:55:46.521Z,4.27
2018-06-23T21:58:21.676Z,4.37
2018-06-23T22:00:58.849Z,4.50
2018-06-23T22:03:38.154Z,4.53
2018-06-23T22:06:18.344Z,4.20
2018-06-23T22:08:51.283Z,4.97
2018-06-23T22:11:31.348Z,4.43
2018-06-23T22:14:11.547Z,4.60
2018-06-23T22:16:49.983Z,4.17
2018-06-23T22:19:21.973Z,3.57
2018-06-23T22:21:54.131Z,4.20
2018-06-23T22:24:33.994Z,3.40
2018-06-23T22:27:13.917Z,3.60
2018-06-23T22:29:54.019Z,2.90
2018-06-23T22:32:31.257Z,3.33
2018-06-23T22:35:11.568Z,3.13
2018-06-23T22:37:52.520Z,3.20
2018-06-23T22:40:32.480Z,3.70
2018-06-23T22:43:08.415Z,4.00
2018-06-23T22:45:46.187Z,3.73
2018-06-23T22:48:24.278Z,4.10
2018-06-23T22:51:04.204Z,4.10
2018-06-23T22:53:42.476Z,4.17
2018-06-23T22:56:22.589Z,4.73
2018-06-23T22:58:59.593Z,4.50
2018-06-23T23:01:39.796Z,4.70
2018-06-23T23:04:12.427Z,4.30
2018-06-23T23:06:52.648Z,4.17
2018-06-23T23:09:32.899Z,4.17
2018-06-23T23:12:09.967Z,4.37
2018-06-23T23:14:49.836Z,4.50
2018-06-23T23:17:30.375Z,4.40
2018-06-23T23:20:06.447Z,4.33
2018-06-23T23:22:42.533Z,4.23
2018-06-23T23:25:17.763Z,4.37
2018-06-23T23:27:54.318Z,4.30
2018-06-23T23:30:30.188Z,3.97
2018-06-23T23:33:10.068Z,4.60
2018-06-23T23:35:48.234Z,4.00
2018-06-23T23:38:25.788Z,3.93
2018-06-23T23:41:05.898Z,4.30
2018-06-23T23:43:45.860Z,4.20
2018-06-23T23:46:25.987Z,4.00
2018-06-23T23:49:05.852Z,4.40
2018-06-23T23:51:44.895Z,3.83
2018-06-23T23:54:25.570Z,4.50
2018-06-23T23:57:03.093Z,4.37
2018-06-23T23:59:36.315Z,4.17
